Time;durP1;ratioP1;P1;durP2;ratioP2;P2;SDS_P1;SDS_P2;PMS_P1;PMS_P2;Temp;Humidity;BMP_temperature;BMP_pressure;BME280_temperature;BME280_humidity;BME280_pressure;Samples;Min_cycle;Max_cycle;Signal;HPM_P1;HPM_P2
2023/04/05 00:01:00;;;;;;;;;22.00;21.50;;;;;;;;5073184;27;46431;-56
2023/04/05 00:03:25;;;;;;;;;19.00;17.75;;;;;;;;5074055;27;45458;-57
2023/04/05 00:05:53;;;;;;;;;21.75;19.50;;;;;;;;5072722;27;46055;-55
2023/04/05 00:08:27;;;;;;;;;21.75;19.00;;;;;;;;5071834;27;45513;-57
2023/04/05 00:10:52;;;;;;;;;19.75;19.00;;;;;;;;5074492;27;45371;-58
2023/04/05 00:13:18;;;;;;;;;20.50;19.75;;;;;;;;5074612;27;45490;-57
2023/04/05 00:15:43;;;;;;;;;17.75;17.75;;;;;;;;5074920;27;45466;-55
2023/04/05 00:18:20;;;;;;;;;23.00;21.25;;;;;;;;5060401;27;45493;-55
2023/04/05 00:20:49;;;;;;;;;18.25;15.75;;;;;;;;5074553;27;45540;-57
2023/04/05 00:23:16;;;;;;;;;17.25;17.25;;;;;;;;5073679;28;45483;-55
2023/04/05 00:25:41;;;;;;;;;24.50;20.75;;;;;;;;5073328;27;45665;-57
2023/04/05 00:28:07;;;;;;;;;16.25;16.25;;;;;;;;5074409;28;45474;-56
2023/04/05 00:30:33;;;;;;;;;20.00;18.25;;;;;;;;5074202;28;45591;-57
2023/04/05 00:32:59;;;;;;;;;20.00;18.00;;;;;;;;5073494;27;45442;-58
2023/04/05 00:35:26;;;;;;;;;23.00;18.75;;;;;;;;5072771;27;45519;-57
2023/04/05 00:37:51;;;;;;;;;21.25;18.25;;;;;;;;5074443;28;45462;-57
2023/04/05 00:40:16;;;;;;;;;22.75;18.50;;;;;;;;5073502;27;46311;-57
2023/04/05 00:42:41;;;;;;;;;23.00;17.00;;;;;;;;5074096;27;45430;-57
2023/04/05 00:45:07;;;;;;;;;20.75;19.50;;;;;;;;5074210;27;45574;-56
2023/04/05 00:47:32;;;;;;;;;19.00;18.00;;;;;;;;5074143;27;45551;-58
2023/04/05 00:49:57;;;;;;;;;20.25;18.50;;;;;;;;5074155;28;45386;-57
2023/04/05 00:52:22;;;;;;;;;16.00;15.50;;;;;;;;5074011;27;45568;-58
2023/04/05 00:54:48;;;;;;;;;16.25;16.00;;;;;;;;5074397;27;45438;-58
2023/04/05 00:57:13;;;;;;;;;20.00;19.50;;;;;;;;5073956;27;45466;-56
2023/04/05 00:59:39;;;;;;;;;15.75;15.75;;;;;;;;5073630;28;45995;-55
2023/04/05 01:02:12;;;;;;;;;21.00;19.00;;;;;;;;5073853;27;45458;-57
2023/04/05 01:04:40;;;;;;;;;20.50;20.50;;;;;;;;5073693;28;45823;-56
2023/04/05 01:07:16;;;;;;;;;17.75;17.75;;;;;;;;5074004;27;45579;-56
2023/04/05 01:10:10;;;;;;;;;20.25;20.00;;;;;;;;5073649;27;45570;-57
2023/04/05 01:12:36;;;;;;;;;20.50;17.75;;;;;;;;5060112;27;45551;-57
2023/04/05 01:15:01;;;;;;;;;19.50;18.50;;;;;;;;5073221;27;45486;-57
2023/04/05 01:17:27;;;;;;;;;21.00;19.00;;;;;;;;5072687;27;45676;-58
2023/04/05 01:19:59;;;;;;;;;20.50;19.00;;;;;;;;5073054;28;45569;-57
2023/04/05 01:22:43;;;;;;;;;20.25;18.75;;;;;;;;5073729;28;45453;-58
2023/04/05 01:25:20;;;;;;;;;16.50;16.00;;;;;;;;5072517;27;45837;-58
2023/04/05 01:28:05;;;;;;;;;20.00;16.75;;;;;;;;5073192;28;45477;-58
2023/04/05 01:30:34;;;;;;;;;19.50;17.50;;;;;;;;5052394;27;46209;-57
2023/04/05 01:33:05;;;;;;;;;21.75;17.75;;;;;;;;5072385;27;45520;-59
2023/04/05 01:35:31;;;;;;;;;19.50;18.00;;;;;;;;5060226;28;45499;-58
2023/04/05 01:37:59;;;;;;;;;16.75;15.50;;;;;;;;5072822;27;45511;-57
2023/04/05 01:40:24;;;;;;;;;17.75;16.75;;;;;;;;5072382;28;46102;-58
2023/04/05 01:42:50;;;;;;;;;20.25;18.25;;;;;;;;5073031;27;45737;-58
2023/04/05 01:45:15;;;;;;;;;18.25;17.25;;;;;;;;5069407;27;45433;-56
2023/04/05 01:47:41;;;;;;;;;20.25;18.25;;;;;;;;5073595;28;45479;-57
2023/04/05 01:50:06;;;;;;;;;17.00;15.50;;;;;;;;5071402;27;45569;-57
2023/04/05 01:52:32;;;;;;;;;18.25;17.75;;;;;;;;5072826;28;46180;-59
2023/04/05 01:54:57;;;;;;;;;15.00;15.00;;;;;;;;5050871;28;45502;-58
2023/04/05 01:57:22;;;;;;;;;24.50;21.50;;;;;;;;5071638;27;45463;-57
2023/04/05 01:59:47;;;;;;;;;16.50;16.25;;;;;;;;5063037;28;46294;-58
2023/04/05 02:02:12;;;;;;;;;20.25;18.50;;;;;;;;5068260;28;45446;-58
2023/04/05 02:04:38;;;;;;;;;17.75;17.00;;;;;;;;5067669;27;45450;-57
2023/04/05 02:07:03;;;;;;;;;16.00;16.00;;;;;;;;5066871;27;45563;-58
2023/04/05 02:09:28;;;;;;;;;17.00;16.00;;;;;;;;5072323;27;46114;-58
2023/04/05 02:11:53;;;;;;;;;19.00;17.00;;;;;;;;5065641;28;45414;-57
2023/04/05 02:14:18;;;;;;;;;17.50;15.50;;;;;;;;5064594;28;45594;-58
2023/04/05 02:16:44;;;;;;;;;15.00;12.25;;;;;;;;5072770;27;45627;-58
2023/04/05 02:19:09;;;;;;;;;17.00;16.00;;;;;;;;5069523;27;45541;-56
2023/04/05 02:21:35;;;;;;;;;21.25;18.50;;;;;;;;5068194;28;45472;-56
2023/04/05 02:24:00;;;;;;;;;18.75;16.50;;;;;;;;5061525;28;45590;-58
2023/04/05 02:26:26;;;;;;;;;16.50;14.25;;;;;;;;5072773;27;45592;-58
2023/04/05 02:28:51;;;;;;;;;16.00;15.25;;;;;;;;5074169;27;45511;-57
2023/04/05 02:31:16;;;;;;;;;15.50;15.50;;;;;;;;5076039;27;45588;-57
2023/04/05 02:33:41;;;;;;;;;22.00;20.00;;;;;;;;5076183;27;45462;-58
2023/04/05 02:36:08;;;;;;;;;22.50;22.50;;;;;;;;5076409;27;45397;-58
2023/04/05 02:38:34;;;;;;;;;18.25;15.75;;;;;;;;5076046;27;45473;-58
2023/04/05 02:40:59;;;;;;;;;23.25;20.75;;;;;;;;5075289;27;45496;-58
2023/04/05 02:43:24;;;;;;;;;16.00;16.00;;;;;;;;5077125;27;45526;-58
2023/04/05 02:45:50;;;;;;;;;21.50;20.50;;;;;;;;5075871;27;45849;-58
2023/04/05 02:48:15;;;;;;;;;23.25;23.25;;;;;;;;5071334;28;45532;-59
2023/04/05 02:50:40;;;;;;;;;24.75;23.00;;;;;;;;5075925;27;45406;-58
2023/04/05 02:53:05;;;;;;;;;25.00;22.75;;;;;;;;5076206;27;45485;-58
2023/04/05 02:55:32;;;;;;;;;28.00;26.75;;;;;;;;5075744;27;45501;-58
2023/04/05 02:58:01;;;;;;;;;25.50;23.50;;;;;;;;5075225;27;46189;-58
2023/04/05 03:00:27;;;;;;;;;22.50;22.50;;;;;;;;5075981;27;45543;-58
2023/04/05 03:02:52;;;;;;;;;24.75;23.25;;;;;;;;5075559;27;45450;-58
2023/04/05 03:05:17;;;;;;;;;28.00;23.00;;;;;;;;5076021;27;45469;-58
2023/04/05 03:07:45;;;;;;;;;26.00;23.75;;;;;;;;5075673;27;45865;-58
2023/04/05 03:10:12;;;;;;;;;23.50;23.50;;;;;;;;5075980;27;45499;-57
2023/04/05 03:12:37;;;;;;;;;27.00;25.00;;;;;;;;5075590;27;45509;-57
2023/04/05 03:15:03;;;;;;;;;24.50;24.00;;;;;;;;5075110;27;45435;-58
2023/04/05 03:17:28;;;;;;;;;32.25;27.75;;;;;;;;5075510;27;45457;-58
2023/04/05 03:19:53;;;;;;;;;19.50;18.00;;;;;;;;5075438;27;45506;-58
2023/04/05 03:22:18;;;;;;;;;22.75;22.75;;;;;;;;5075587;27;45468;-58
2023/04/05 03:24:43;;;;;;;;;26.00;24.75;;;;;;;;5075192;28;45470;-58
2023/04/05 03:27:08;;;;;;;;;22.75;22.25;;;;;;;;5075410;27;46380;-58
2023/04/05 03:29:34;;;;;;;;;22.75;22.00;;;;;;;;5073737;28;45558;-58
2023/04/05 03:31:59;;;;;;;;;23.25;22.50;;;;;;;;5070860;27;45567;-58
2023/04/05 03:34:27;;;;;;;;;25.75;25.75;;;;;;;;5074049;27;45473;-58
2023/04/05 03:36:53;;;;;;;;;28.25;25.00;;;;;;;;5073549;27;46251;-58
2023/04/05 03:39:18;;;;;;;;;27.50;25.75;;;;;;;;5074186;27;45564;-60
2023/04/05 03:41:44;;;;;;;;;23.50;20.00;;;;;;;;5075317;27;45684;-58
2023/04/05 03:44:10;;;;;;;;;22.75;22.00;;;;;;;;5075353;27;45498;-58
2023/04/05 03:46:36;;;;;;;;;31.00;28.75;;;;;;;;5074911;27;45643;-59
2023/04/05 03:49:02;;;;;;;;;28.00;26.75;;;;;;;;5072532;27;45422;-58
2023/04/05 03:51:27;;;;;;;;;26.75;25.50;;;;;;;;5075209;27;45464;-58
2023/04/05 03:53:53;;;;;;;;;24.25;23.00;;;;;;;;5074989;28;45394;-58
2023/04/05 03:56:18;;;;;;;;;25.75;24.50;;;;;;;;5075038;27;45581;-56
2023/04/05 03:58:43;;;;;;;;;25.00;24.50;;;;;;;;5074733;27;45455;-58
2023/04/05 04:01:09;;;;;;;;;25.75;24.25;;;;;;;;5075074;27;45602;-58
2023/04/05 04:03:36;;;;;;;;;24.75;21.75;;;;;;;;5075138;27;45480;-56
2023/04/05 04:06:01;;;;;;;;;23.00;22.75;;;;;;;;5074019;27;47290;-58
2023/04/05 04:08:26;;;;;;;;;21.75;18.25;;;;;;;;5074882;27;45467;-59
2023/04/05 04:10:51;;;;;;;;;20.50;20.50;;;;;;;;5074832;27;45392;-58
2023/04/05 04:13:18;;;;;;;;;21.25;21.25;;;;;;;;5069133;27;45702;-58
2023/04/05 04:15:43;;;;;;;;;24.25;23.00;;;;;;;;5074844;27;45460;-58
2023/04/05 04:18:08;;;;;;;;;25.75;23.00;;;;;;;;5074416;27;45458;-57
2023/04/05 04:20:34;;;;;;;;;22.75;22.75;;;;;;;;5074802;27;45615;-59
2023/04/05 04:22:59;;;;;;;;;23.25;22.00;;;;;;;;5074208;27;45480;-58
2023/04/05 04:25:29;;;;;;;;;22.50;22.50;;;;;;;;5074497;28;45994;-58
2023/04/05 04:27:54;;;;;;;;;27.25;21.50;;;;;;;;5074603;27;45508;-58
2023/04/05 04:30:21;;;;;;;;;21.50;21.50;;;;;;;;5074441;27;45632;-58
2023/04/05 04:32:53;;;;;;;;;19.00;16.25;;;;;;;;5074537;27;45402;-59
2023/04/05 04:35:26;;;;;;;;;25.25;23.75;;;;;;;;5074401;27;45499;-58
2023/04/05 04:37:52;;;;;;;;;22.50;22.00;;;;;;;;5074445;27;45528;-59
2023/04/05 04:40:17;;;;;;;;;22.50;20.50;;;;;;;;5074011;27;45991;-58
2023/04/05 04:42:45;;;;;;;;;21.75;19.50;;;;;;;;5074391;27;45480;-59
2023/04/05 04:45:11;;;;;;;;;26.75;24.50;;;;;;;;5074024;27;45543;-59
2023/04/05 04:47:36;;;;;;;;;19.25;18.75;;;;;;;;5074048;28;45524;-59
2023/04/05 04:50:03;;;;;;;;;22.50;22.50;;;;;;;;5074137;28;45418;-58
2023/04/05 04:52:28;;;;;;;;;27.50;24.25;;;;;;;;5073802;27;45640;-59
2023/04/05 04:54:53;;;;;;;;;22.50;21.25;;;;;;;;5073624;27;45457;-59
2023/04/05 04:57:19;;;;;;;;;29.00;28.00;;;;;;;;5073267;28;45658;-58
2023/04/05 04:59:44;;;;;;;;;18.00;15.00;;;;;;;;5074070;28;45539;-59
2023/04/05 05:02:10;;;;;;;;;25.00;22.00;;;;;;;;5073521;28;45580;-56
2023/04/05 05:04:35;;;;;;;;;22.00;21.00;;;;;;;;5071039;27;45477;-59
2023/04/05 05:07:00;;;;;;;;;29.00;27.00;;;;;;;;5065435;27;45472;-58
2023/04/05 05:09:26;;;;;;;;;28.00;26.50;;;;;;;;5073692;27;45480;-59
2023/04/05 05:11:51;;;;;;;;;25.00;22.75;;;;;;;;5073643;27;45461;-58
2023/04/05 05:14:16;;;;;;;;;30.25;28.75;;;;;;;;5072660;27;46069;-59
2023/04/05 05:16:41;;;;;;;;;28.50;26.00;;;;;;;;5073574;28;45922;-58
2023/04/05 05:19:06;;;;;;;;;22.00;22.00;;;;;;;;5073616;27;45629;-57
2023/04/05 05:21:32;;;;;;;;;23.25;19.50;;;;;;;;5073459;27;45473;-58
2023/04/05 05:23:58;;;;;;;;;27.75;22.50;;;;;;;;5072258;27;47776;-58
2023/04/05 05:26:23;;;;;;;;;29.75;27.00;;;;;;;;5067840;27;45506;-58
2023/04/05 05:28:49;;;;;;;;;21.50;19.25;;;;;;;;5073587;27;45484;-59
2023/04/05 05:31:16;;;;;;;;;29.75;25.50;;;;;;;;5065034;27;45659;-58
2023/04/05 05:33:41;;;;;;;;;26.75;25.75;;;;;;;;5070012;27;46125;-59
2023/04/05 05:36:07;;;;;;;;;31.50;28.50;;;;;;;;5065145;27;45391;-58
2023/04/05 05:38:32;;;;;;;;;27.25;26.75;;;;;;;;5067023;28;45811;-59
2023/04/05 05:40:57;;;;;;;;;24.00;22.25;;;;;;;;5069055;28;45638;-59
2023/04/05 05:43:22;;;;;;;;;27.50;24.00;;;;;;;;5069539;27;45512;-60
2023/04/05 05:45:48;;;;;;;;;31.25;27.00;;;;;;;;5073289;27;45488;-60
2023/04/05 05:48:13;;;;;;;;;27.25;26.75;;;;;;;;5072610;27;45438;-60
2023/04/05 05:50:38;;;;;;;;;31.00;28.00;;;;;;;;5073355;27;45612;-60
2023/04/05 05:53:03;;;;;;;;;31.25;28.50;;;;;;;;5073101;27;46182;-60
2023/04/05 05:55:28;;;;;;;;;36.00;31.00;;;;;;;;5071859;27;45452;-60
2023/04/05 05:57:54;;;;;;;;;30.00;26.75;;;;;;;;5073402;28;45535;-59
2023/04/05 06:00:20;;;;;;;;;32.00;28.25;;;;;;;;5073001;28;45444;-58
2023/04/05 06:02:45;;;;;;;;;31.75;28.25;;;;;;;;5072492;28;46161;-58
2023/04/05 06:05:10;;;;;;;;;34.50;30.75;;;;;;;;5075773;27;45568;-57
2023/04/05 06:07:36;;;;;;;;;32.25;29.75;;;;;;;;5074141;27;45510;-60
2023/04/05 06:10:02;;;;;;;;;32.00;25.75;;;;;;;;5068897;27;45440;-59
2023/04/05 06:12:27;;;;;;;;;32.25;30.00;;;;;;;;5069582;27;45899;-57
2023/04/05 06:14:53;;;;;;;;;24.75;24.00;;;;;;;;5075019;27;45484;-59
2023/04/05 06:17:18;;;;;;;;;31.25;28.00;;;;;;;;5064335;28;45719;-57
2023/04/05 06:19:44;;;;;;;;;28.75;27.50;;;;;;;;5069643;27;45461;-57
2023/04/05 06:22:09;;;;;;;;;34.50;29.75;;;;;;;;5076328;27;45461;-57
2023/04/05 06:24:34;;;;;;;;;28.25;25.75;;;;;;;;5075389;27;45427;-57
2023/04/05 06:27:00;;;;;;;;;26.50;24.50;;;;;;;;5075476;27;45585;-58
2023/04/05 06:29:25;;;;;;;;;30.25;29.50;;;;;;;;5075563;27;45572;-58
2023/04/05 06:31:50;;;;;;;;;27.75;26.50;;;;;;;;5074477;27;45502;-60
2023/04/05 06:34:15;;;;;;;;;33.75;29.25;;;;;;;;5075469;27;45487;-58
2023/04/05 06:36:41;;;;;;;;;26.75;26.00;;;;;;;;5075413;27;45484;-58
2023/04/05 06:39:06;;;;;;;;;32.25;28.25;;;;;;;;5075421;27;45528;-58
2023/04/05 06:41:32;;;;;;;;;28.75;25.50;;;;;;;;5075100;27;45954;-60
2023/04/05 06:43:57;;;;;;;;;23.50;23.25;;;;;;;;5075141;27;45523;-59
2023/04/05 06:46:22;;;;;;;;;33.25;32.75;;;;;;;;5075309;27;45463;-59
2023/04/05 06:48:48;;;;;;;;;33.50;29.00;;;;;;;;5074253;27;45521;-58
2023/04/05 06:51:14;;;;;;;;;31.50;31.50;;;;;;;;5075020;27;45476;-58
2023/04/05 06:53:39;;;;;;;;;28.50;27.25;;;;;;;;5074770;27;45454;-59
2023/04/05 06:56:05;;;;;;;;;27.50;26.75;;;;;;;;5073875;27;45640;-59
2023/04/05 06:58:30;;;;;;;;;32.25;30.75;;;;;;;;5074908;27;45588;-59
2023/04/05 07:00:55;;;;;;;;;37.50;34.25;;;;;;;;5074848;27;46060;-59
2023/04/05 07:03:21;;;;;;;;;30.75;29.75;;;;;;;;5075103;28;45583;-59
2023/04/05 07:05:53;;;;;;;;;31.75;31.00;;;;;;;;5074503;27;45491;-58
2023/04/05 07:08:19;;;;;;;;;38.00;33.75;;;;;;;;5074969;27;45593;-58
2023/04/05 07:10:45;;;;;;;;;32.00;31.00;;;;;;;;5074387;27;45699;-59
2023/04/05 07:13:10;;;;;;;;;32.00;29.75;;;;;;;;5074761;27;45552;-58
2023/04/05 07:15:35;;;;;;;;;38.50;32.00;;;;;;;;5074741;27;45503;-58
2023/04/05 07:18:00;;;;;;;;;32.25;31.25;;;;;;;;5074624;27;45640;-59
2023/04/05 07:20:25;;;;;;;;;33.00;30.25;;;;;;;;5074608;27;46306;-59
2023/04/05 07:22:50;;;;;;;;;41.00;34.00;;;;;;;;5074688;28;45705;-58
2023/04/05 07:25:16;;;;;;;;;34.50;33.00;;;;;;;;5074589;27;45564;-59
2023/04/05 07:27:41;;;;;;;;;32.00;31.25;;;;;;;;5074867;27;45496;-59
2023/04/05 07:30:07;;;;;;;;;33.75;33.25;;;;;;;;5074255;27;46137;-59
2023/04/05 07:32:33;;;;;;;;;40.00;34.75;;;;;;;;5072707;28;45889;-58
2023/04/05 07:34:58;;;;;;;;;28.25;27.50;;;;;;;;5074177;27;45519;-58
2023/04/05 07:37:23;;;;;;;;;33.50;29.00;;;;;;;;5074440;27;45484;-58
2023/04/05 07:39:48;;;;;;;;;31.50;29.00;;;;;;;;5074241;28;45540;-58
2023/04/05 07:42:14;;;;;;;;;37.25;31.25;;;;;;;;5074398;27;45643;-58
2023/04/05 07:44:39;;;;;;;;;31.50;30.25;;;;;;;;5074514;27;45631;-58
2023/04/05 07:47:04;;;;;;;;;34.75;32.75;;;;;;;;5074109;27;45580;-58
2023/04/05 07:49:30;;;;;;;;;35.50;32.25;;;;;;;;5073708;27;45421;-58
2023/04/05 07:51:56;;;;;;;;;39.25;34.00;;;;;;;;5074022;27;45499;-58
2023/04/05 07:54:21;;;;;;;;;38.00;35.25;;;;;;;;5074039;27;45583;-58
2023/04/05 07:56:48;;;;;;;;;42.00;35.75;;;;;;;;5074191;27;45503;-58
2023/04/05 07:59:13;;;;;;;;;36.75;34.75;;;;;;;;5073737;27;46033;-58
2023/04/05 08:01:38;;;;;;;;;37.50;32.50;;;;;;;;5073985;28;45600;-58
2023/04/05 08:04:03;;;;;;;;;36.50;34.50;;;;;;;;5072590;27;45436;-58
2023/04/05 08:06:29;;;;;;;;;33.00;32.50;;;;;;;;5074086;27;45494;-58
2023/04/05 08:08:54;;;;;;;;;35.00;31.00;;;;;;;;5073805;27;46113;-58
2023/04/05 08:11:20;;;;;;;;;40.25;35.00;;;;;;;;5073726;28;45540;-58
2023/04/05 08:13:45;;;;;;;;;39.00;34.75;;;;;;;;5074017;27;45535;-58
2023/04/05 08:16:11;;;;;;;;;42.75;35.00;;;;;;;;5073768;27;45643;-58
2023/04/05 08:18:36;;;;;;;;;37.25;33.00;;;;;;;;5073909;27;46137;-58
2023/04/05 08:21:01;;;;;;;;;33.00;30.50;;;;;;;;5073533;27;45544;-59
2023/04/05 08:23:27;;;;;;;;;28.75;28.00;;;;;;;;5073663;27;45438;-58
2023/04/05 08:25:52;;;;;;;;;32.75;32.25;;;;;;;;5073233;27;45528;-58
2023/04/05 08:28:17;;;;;;;;;36.25;33.00;;;;;;;;5073231;27;46064;-59
2023/04/05 08:30:44;;;;;;;;;39.00;33.00;;;;;;;;5072914;27;45646;-58
2023/04/05 08:33:09;;;;;;;;;34.75;32.25;;;;;;;;5073311;27;45432;-57
2023/04/05 08:35:38;;;;;;;;;38.50;33.75;;;;;;;;5073368;27;45569;-58
2023/04/05 08:38:03;;;;;;;;;33.00;30.00;;;;;;;;5073365;27;45634;-58
2023/04/05 08:40:41;;;;;;;;;41.00;34.50;;;;;;;;5073184;28;45497;-58
2023/04/05 08:43:09;;;;;;;;;38.00;32.75;;;;;;;;5073246;27;45491;-58
2023/04/05 08:45:36;;;;;;;;;35.50;33.25;;;;;;;;5072851;27;45653;-58
2023/04/05 08:48:01;;;;;;;;;42.75;36.00;;;;;;;;5073131;27;45426;-58
2023/04/05 08:50:26;;;;;;;;;36.25;32.50;;;;;;;;5073039;27;45561;-58
2023/04/05 08:52:52;;;;;;;;;30.50;29.25;;;;;;;;5073504;28;45457;-57
2023/04/05 08:55:17;;;;;;;;;39.00;33.75;;;;;;;;5073093;27;45664;-58
2023/04/05 08:57:44;;;;;;;;;28.25;26.00;;;;;;;;5072839;27;46399;-58
2023/04/05 09:00:10;;;;;;;;;35.00;29.50;;;;;;;;5073094;27;45511;-58
2023/04/05 09:02:36;;;;;;;;;34.50;29.00;;;;;;;;5072524;27;45499;-58
2023/04/05 09:05:02;;;;;;;;;28.50;25.00;;;;;;;;5073009;27;45453;-58
2023/04/05 09:07:29;;;;;;;;;28.50;24.75;;;;;;;;5072567;28;45555;-58
2023/04/05 09:09:55;;;;;;;;;27.25;24.25;;;;;;;;5072715;27;45536;-58
2023/04/05 09:12:24;;;;;;;;;28.75;26.25;;;;;;;;5072790;27;45468;-58
2023/04/05 09:14:50;;;;;;;;;29.75;28.00;;;;;;;;5072593;27;45598;-58
2023/04/05 09:17:16;;;;;;;;;27.75;24.50;;;;;;;;5072530;27;46025;-58
2023/04/05 09:19:42;;;;;;;;;25.75;25.75;;;;;;;;5072624;27;45453;-58
2023/04/05 09:22:08;;;;;;;;;29.50;26.75;;;;;;;;5072885;28;45511;-58
2023/04/05 09:24:35;;;;;;;;;30.75;27.25;;;;;;;;5072543;28;45473;-58
2023/04/05 09:27:05;;;;;;;;;26.00;25.75;;;;;;;;5071187;27;46199;-58
2023/04/05 09:29:30;;;;;;;;;28.25;26.00;;;;;;;;5072563;27;45472;-58
2023/04/05 09:31:55;;;;;;;;;29.75;24.75;;;;;;;;5072115;27;45655;-58
2023/04/05 09:34:21;;;;;;;;;22.00;18.75;;;;;;;;5072703;27;45564;-58
2023/04/05 09:36:46;;;;;;;;;25.75;25.25;;;;;;;;5071305;27;45510;-58
2023/04/05 09:39:11;;;;;;;;;27.25;22.75;;;;;;;;5075209;27;45544;-58
2023/04/05 09:41:38;;;;;;;;;21.25;19.25;;;;;;;;5076333;28;45607;-58
2023/04/05 09:44:03;;;;;;;;;25.75;23.25;;;;;;;;5076433;27;45618;-60
2023/04/05 09:46:32;;;;;;;;;25.25;22.00;;;;;;;;5075955;27;45496;-61
2023/04/05 09:48:58;;;;;;;;;21.75;19.75;;;;;;;;5075781;27;45427;-58
2023/04/05 09:51:30;;;;;;;;;25.50;24.50;;;;;;;;5076035;27;45553;-61
2023/04/05 09:54:05;;;;;;;;;24.50;22.00;;;;;;;;5076007;27;45520;-58
2023/04/05 09:56:33;;;;;;;;;28.75;22.00;;;;;;;;5075695;27;45503;-58
2023/04/05 09:59:00;;;;;;;;;23.25;20.25;;;;;;;;5075763;27;45630;-60
2023/04/05 10:01:34;;;;;;;;;24.75;24.25;;;;;;;;5076109;27;45639;-59
2023/04/05 10:03:59;;;;;;;;;22.50;21.75;;;;;;;;5075582;27;45429;-58
2023/04/05 10:06:38;;;;;;;;;26.50;24.75;;;;;;;;5075711;27;46085;-60
2023/04/05 10:09:04;;;;;;;;;21.00;20.50;;;;;;;;5073732;27;45556;-60
2023/04/05 10:11:29;;;;;;;;;23.25;22.75;;;;;;;;5073930;27;45437;-58
2023/04/05 10:13:55;;;;;;;;;26.75;21.75;;;;;;;;5073257;27;45525;-58
2023/04/05 10:16:23;;;;;;;;;27.00;24.00;;;;;;;;5075300;27;45596;-58
2023/04/05 10:18:50;;;;;;;;;21.75;19.75;;;;;;;;5075815;27;45522;-58
2023/04/05 10:21:19;;;;;;;;;23.75;23.00;;;;;;;;5064565;28;45565;-58
2023/04/05 10:23:46;;;;;;;;;26.50;21.75;;;;;;;;5075675;27;45382;-57
2023/04/05 10:26:27;;;;;;;;;24.75;23.75;;;;;;;;5075122;27;46270;-60
2023/04/05 10:28:56;;;;;;;;;28.50;25.25;;;;;;;;5075633;27;45619;-58
2023/04/05 10:31:21;;;;;;;;;24.25;21.50;;;;;;;;5073357;27;45526;-58
2023/04/05 10:33:51;;;;;;;;;20.25;20.25;;;;;;;;5075036;27;45492;-58
2023/04/05 10:36:16;;;;;;;;;24.00;22.75;;;;;;;;5074675;27;45503;-58
2023/04/05 10:38:49;;;;;;;;;20.60;19.40;;;;;;;;5074610;27;45449;-58
2023/04/05 10:41:14;;;;;;;;;27.25;27.25;;;;;;;;5074785;27;45435;-58
2023/04/05 10:43:40;;;;;;;;;26.00;22.00;;;;;;;;5074064;27;45597;-59
2023/04/05 10:46:05;;;;;;;;;28.00;27.75;;;;;;;;5072166;27;45446;-59
2023/04/05 10:48:39;;;;;;;;;23.75;23.00;;;;;;;;5073164;28;45532;-59
2023/04/05 10:51:05;;;;;;;;;25.00;22.75;;;;;;;;5074436;27;45432;-59
2023/04/05 10:53:31;;;;;;;;;21.00;21.00;;;;;;;;5074098;27;45541;-58
2023/04/05 10:55:57;;;;;;;;;23.00;18.50;;;;;;;;5074278;28;45544;-59
2023/04/05 10:58:24;;;;;;;;;26.75;24.50;;;;;;;;5074374;27;45587;-58
2023/04/05 11:00:50;;;;;;;;;24.50;24.00;;;;;;;;5068590;27;45492;-59
2023/04/05 11:03:33;;;;;;;;;27.50;25.50;;;;;;;;5073774;27;45484;-59
2023/04/05 11:06:18;;;;;;;;;27.00;25.75;;;;;;;;5068271;28;46755;-58
2023/04/05 11:08:45;;;;;;;;;28.75;26.00;;;;;;;;5071134;27;45787;-58
2023/04/05 11:11:13;;;;;;;;;32.25;27.75;;;;;;;;5074921;27;45505;-59
2023/04/05 11:13:51;;;;;;;;;43.75;37.00;;;;;;;;5064634;27;45587;-56
2023/04/05 11:16:17;;;;;;;;;32.50;31.50;;;;;;;;5071550;27;46184;-58
2023/04/05 11:18:52;;;;;;;;;25.75;25.75;;;;;;;;5073863;27;45584;-58
2023/04/05 11:21:21;;;;;;;;;29.75;27.75;;;;;;;;5072267;27;45674;-59
2023/04/05 11:24:03;;;;;;;;;29.75;28.75;;;;;;;;5073212;27;45581;-59
2023/04/05 11:26:47;;;;;;;;;30.75;27.75;;;;;;;;5071681;27;47698;-59
2023/04/05 11:29:14;;;;;;;;;28.00;26.50;;;;;;;;5072762;27;45497;-59
2023/04/05 11:31:56;;;;;;;;;28.50;25.50;;;;;;;;5030895;27;1105923;-59
2023/04/05 11:34:24;;;;;;;;;25.75;25.75;;;;;;;;5066124;28;45453;-58
2023/04/05 11:36:50;;;;;;;;;33.25;27.00;;;;;;;;5070252;27;47260;-61
2023/04/05 11:39:21;;;;;;;;;24.50;23.50;;;;;;;;5074290;27;45399;-59
2023/04/05 11:41:52;;;;;;;;;27.50;26.00;;;;;;;;5074020;27;45538;-60
2023/04/05 11:44:17;;;;;;;;;23.50;23.50;;;;;;;;5066122;27;45646;-59
2023/04/05 11:46:44;;;;;;;;;25.00;21.50;;;;;;;;5073764;27;46285;-59
2023/04/05 11:49:11;;;;;;;;;19.50;19.50;;;;;;;;5073772;27;45521;-59
2023/04/05 11:51:36;;;;;;;;;23.00;21.50;;;;;;;;5073884;27;45520;-58
2023/04/05 11:54:01;;;;;;;;;25.25;22.75;;;;;;;;5074136;27;45560;-58
2023/04/05 11:56:26;;;;;;;;;24.50;21.75;;;;;;;;5073474;27;45978;-59
2023/04/05 11:58:56;;;;;;;;;25.75;24.75;;;;;;;;5074266;27;45472;-58
2023/04/05 12:01:21;;;;;;;;;18.00;17.75;;;;;;;;5072992;27;45585;-60
2023/04/05 12:03:51;;;;;;;;;25.25;22.25;;;;;;;;5072330;27;45474;-61
2023/04/05 12:06:20;;;;;;;;;26.00;21.75;;;;;;;;5073800;27;46449;-60
2023/04/05 12:08:49;;;;;;;;;19.75;19.00;;;;;;;;5073475;27;45469;-60
2023/04/05 12:11:15;;;;;;;;;21.50;19.75;;;;;;;;5073806;27;45495;-61
2023/04/05 12:13:40;;;;;;;;;19.00;18.75;;;;;;;;5072302;27;45610;-59
2023/04/05 12:16:06;;;;;;;;;19.25;16.75;;;;;;;;5072774;27;46031;-58
2023/04/05 12:18:32;;;;;;;;;16.50;16.50;;;;;;;;5073621;28;45497;-59
2023/04/05 12:20:58;;;;;;;;;25.00;20.50;;;;;;;;5073909;27;45475;-59
2023/04/05 12:23:24;;;;;;;;;20.50;20.50;;;;;;;;5073705;28;45441;-59
2023/04/05 12:25:49;;;;;;;;;19.00;18.25;;;;;;;;5072160;27;45971;-59
2023/04/05 12:28:15;;;;;;;;;21.50;21.25;;;;;;;;5073690;28;45452;-59
2023/04/05 12:30:50;;;;;;;;;20.33;20.00;;;;;;;;5073518;27;45488;-60
2023/04/05 12:33:24;;;;;;;;;18.33;17.33;;;;;;;;5073215;27;45457;-61
2023/04/05 12:35:50;;;;;;;;;17.50;17.50;;;;;;;;5073006;27;45522;-59
2023/04/05 12:38:16;;;;;;;;;18.67;18.00;;;;;;;;5072632;27;45554;-60
2023/04/05 12:40:42;;;;;;;;;18.33;17.00;;;;;;;;5073265;27;45543;-58
2023/04/05 12:43:08;;;;;;;;;20.33;18.33;;;;;;;;5073266;27;45595;-60
2023/04/05 12:45:40;;;;;;;;;21.00;18.67;;;;;;;;5073038;27;46104;-59
2023/04/05 12:48:18;;;;;;;;;16.67;16.00;;;;;;;;5073349;27;45510;-60
2023/04/05 12:50:45;;;;;;;;;18.00;16.33;;;;;;;;5073476;27;45483;-59
2023/04/05 12:53:18;;;;;;;;;14.67;14.67;;;;;;;;5073348;27;45507;-59
2023/04/05 12:55:47;;;;;;;;;17.67;15.00;;;;;;;;5073135;27;45919;-60
2023/04/05 12:58:13;;;;;;;;;18.00;17.33;;;;;;;;5073069;27;45574;-58
2023/04/05 13:00:38;;;;;;;;;20.67;19.67;;;;;;;;5073011;27;45576;-59
2023/04/05 13:03:03;;;;;;;;;22.67;20.33;;;;;;;;5073295;27;45622;-58
2023/04/05 13:05:29;;;;;;;;;18.00;17.67;;;;;;;;5072916;28;45420;-59
2023/04/05 13:07:54;;;;;;;;;18.33;15.67;;;;;;;;5073020;27;45517;-59
2023/04/05 13:10:21;;;;;;;;;21.00;19.33;;;;;;;;5073110;27;45944;-60
2023/04/05 13:12:46;;;;;;;;;19.00;16.33;;;;;;;;5072630;27;45817;-60
2023/04/05 13:15:13;;;;;;;;;16.33;16.33;;;;;;;;5072781;27;45574;-58
2023/04/05 13:17:38;;;;;;;;;20.33;18.00;;;;;;;;5072896;27;45504;-57
2023/04/05 13:20:04;;;;;;;;;16.33;15.67;;;;;;;;5073112;27;45739;-59
2023/04/05 13:22:30;;;;;;;;;17.67;15.00;;;;;;;;5072835;27;45534;-60
2023/04/05 13:24:55;;;;;;;;;19.33;17.67;;;;;;;;5072533;27;45596;-60
2023/04/05 13:27:20;;;;;;;;;17.00;15.67;;;;;;;;5072635;27;45659;-59
2023/04/05 13:29:45;;;;;;;;;17.33;17.00;;;;;;;;5072811;27;45756;-58
2023/04/05 13:32:11;;;;;;;;;20.00;16.00;;;;;;;;5067458;27;45545;-58
2023/04/05 13:34:36;;;;;;;;;16.67;16.33;;;;;;;;5073040;27;46308;-58
2023/04/05 13:37:01;;;;;;;;;23.33;18.00;;;;;;;;5072485;27;45758;-61
2023/04/05 13:39:26;;;;;;;;;19.00;19.00;;;;;;;;5071901;27;45566;-66
2023/04/05 13:41:52;;;;;;;;;17.00;15.67;;;;;;;;5072743;28;45606;-66
2023/04/05 13:44:17;;;;;;;;;19.33;16.33;;;;;;;;5069879;27;46344;-62
2023/04/05 13:46:43;;;;;;;;;14.67;14.33;;;;;;;;5072126;27;45635;-63
2023/04/05 13:49:08;;;;;;;;;18.00;18.00;;;;;;;;5072415;27;45522;-64
2023/04/05 13:51:35;;;;;;;;;17.00;16.33;;;;;;;;5073088;27;45455;-62
2023/04/05 13:54:00;;;;;;;;;20.00;17.00;;;;;;;;5072040;27;45490;-62
2023/04/05 13:56:26;;;;;;;;;21.00;21.00;;;;;;;;5068759;28;45569;-61
2023/04/05 13:58:51;;;;;;;;;19.67;18.00;;;;;;;;5067393;27;45520;-67
2023/04/05 14:01:16;;;;;;;;;16.00;14.00;;;;;;;;5070706;27;45633;-66
2023/04/05 14:03:41;;;;;;;;;19.67;19.67;;;;;;;;5070041;27;46210;-67
2023/04/05 14:06:06;;;;;;;;;19.67;18.67;;;;;;;;5074756;27;45550;-68
2023/04/05 14:08:31;;;;;;;;;19.00;17.00;;;;;;;;5067229;27;45630;-62
2023/04/05 14:10:57;;;;;;;;;21.67;18.00;;;;;;;;5069793;27;45500;-63
2023/04/05 14:13:22;;;;;;;;;22.33;22.33;;;;;;;;5065754;28;46184;-62